Time;durP1;ratioP1;P1;durP2;ratioP2;P2;SDS_P1;SDS_P2;PMS_P1;PMS_P2;Temp;Humidity;BMP_temperature;BMP_pressure;BME280_temperature;BME280_humidity;BME280_pressure;Samples;Min_cycle;Max_cycle;Signal;HPM_P1;HPM_P2
2023/10/07 00:00:28;;;;;;;1999.90;999.90;;;12.40;99.90;;;;;;5042534;28;20054;-77
2023/10/07 00:02:59;;;;;;;1999.90;999.90;;;12.40;99.90;;;;;;5055416;28;20451;-77
2023/10/07 00:05:35;;;;;;;1999.90;999.90;;;12.30;99.90;;;;;;5053506;28;20057;-71
2023/10/07 00:08:12;;;;;;;1999.90;999.90;;;12.30;99.90;;;;;;5055402;28;20029;-71
2023/10/07 00:10:39;;;;;;;1999.90;999.90;;;12.20;99.90;;;;;;5055239;28;20036;-77
2023/10/07 00:13:09;;;;;;;1999.90;999.90;;;12.20;99.90;;;;;;5035463;28;20451;-77
2023/10/07 00:15:47;;;;;;;1999.90;999.90;;;12.20;99.90;;;;;;5035297;28;20025;-77
2023/10/07 00:18:13;;;;;;;1999.90;999.90;;;12.20;99.90;;;;;;5040480;28;20032;-71
2023/10/07 00:20:56;;;;;;;1999.90;999.90;;;12.20;99.90;;;;;;5054645;28;20029;-71
2023/10/07 00:23:28;;;;;;;1999.90;999.90;;;12.10;99.90;;;;;;5055218;28;20373;-77
2023/10/07 00:25:55;;;;;;;1999.90;999.90;;;12.10;99.90;;;;;;5045472;28;20412;-77
2023/10/07 00:28:32;;;;;;;1999.90;999.90;;;12.10;99.90;;;;;;5035891;28;20025;-77
2023/10/07 00:31:05;;;;;;;1999.90;999.90;;;12.10;99.90;;;;;;5046003;28;20141;-71
2023/10/07 00:33:50;;;;;;;1999.90;999.90;;;12.10;99.90;;;;;;5035007;28;20060;-72
2023/10/07 00:39:20;;;;;;;1999.90;999.90;;;12.10;99.90;;;;;;5030220;28;20081;-71
2023/10/07 00:41:47;;;;;;;1999.90;999.90;;;12.10;99.90;;;;;;5034764;28;20018;-71
2023/10/07 00:44:22;;;;;;;1999.90;999.90;;;12.10;99.90;;;;;;5034927;28;20499;-72
2023/10/07 00:47:26;;;;;;;1999.90;999.90;;;12.10;99.90;;;;;;5034706;28;20032;-72
2023/10/07 00:49:53;;;;;;;1999.90;999.90;;;12.20;99.90;;;;;;5033297;28;20045;-71
2023/10/07 00:52:33;;;;;;;1999.90;999.90;;;12.10;99.90;;;;;;5034597;28;20468;-77
2023/10/07 00:57:35;;;;;;;1999.90;999.90;;;12.20;99.90;;;;;;5034012;28;20030;-71
2023/10/07 01:00:40;;;;;;;1999.90;999.90;;;12.20;99.90;;;;;;5039067;28;20029;-71
2023/10/07 01:03:47;;;;;;;1999.90;999.90;;;12.30;99.90;;;;;;5053921;28;20500;-77
2023/10/07 01:08:29;;;;;;;1999.90;999.90;;;12.20;99.90;;;;;;5054084;28;20060;-77
2023/10/07 01:11:07;;;;;;;1999.90;999.90;;;12.30;99.90;;;;;;5054189;28;20120;-77
2023/10/07 01:13:36;;;;;;;1999.90;999.90;;;12.30;99.90;;;;;;5054035;28;20053;-72
2023/10/07 01:16:08;;;;;;;1999.90;999.90;;;12.40;99.90;;;;;;5053571;28;20025;-77
2023/10/07 01:18:39;;;;;;;1999.90;999.90;;;12.30;99.90;;;;;;5053952;28;20025;-71
2023/10/07 01:21:11;;;;;;;1999.90;999.90;;;12.30;99.90;;;;;;5053453;28;20052;-77
2023/10/07 01:23:37;;;;;;;1999.90;999.90;;;12.40;99.90;;;;;;5054373;28;20079;-72
2023/10/07 01:26:14;;;;;;;1999.90;999.90;;;12.40;99.90;;;;;;5043037;28;20079;-77
2023/10/07 01:28:40;;;;;;;1999.90;999.90;;;12.30;99.90;;;;;;5035116;28;20044;-77
2023/10/07 01:31:17;;;;;;;1999.90;999.90;;;12.30;99.90;;;;;;5044569;28;20025;-71
2023/10/07 01:33:47;;;;;;;1999.90;999.90;;;12.20;99.90;;;;;;5033837;28;20099;-77
2023/10/07 01:36:19;;;;;;;1999.90;999.90;;;12.10;99.90;;;;;;5033992;28;20598;-72
2023/10/07 01:38:48;;;;;;;1999.90;999.90;;;12.10;99.90;;;;;;5033636;28;20068;-72
2023/10/07 01:41:21;;;;;;;1999.90;999.90;;;12.00;99.90;;;;;;5033488;28;20567;-77
2023/10/07 01:43:56;;;;;;;1999.90;999.90;;;12.00;99.90;;;;;;5033961;28;20049;-72
2023/10/07 01:46:27;;;;;;;1999.90;999.90;;;11.90;99.90;;;;;;5033580;28;20060;-77
2023/10/07 01:49:01;;;;;;;1999.90;999.90;;;11.90;99.90;;;;;;5032025;28;20024;-77
2023/10/07 01:51:28;;;;;;;1999.90;999.90;;;11.90;99.90;;;;;;5033498;28;20104;-71
2023/10/07 01:53:56;;;;;;;1999.90;999.90;;;11.80;99.90;;;;;;5033438;28;20032;-77
2023/10/07 01:56:26;;;;;;;1999.90;999.90;;;11.80;99.90;;;;;;5032150;28;20419;-77
2023/10/07 01:58:54;;;;;;;1999.90;999.90;;;11.70;99.90;;;;;;5033533;28;20384;-78
2023/10/07 02:01:22;;;;;;;1999.90;999.90;;;11.80;99.90;;;;;;5048832;28;20020;-71
2023/10/07 02:03:49;;;;;;;1999.90;999.90;;;11.80;99.90;;;;;;5053246;28;20071;-72
2023/10/07 02:06:18;;;;;;;1999.90;999.90;;;11.80;99.90;;;;;;5052940;28;20024;-77
2023/10/07 02:08:45;;;;;;;1999.90;999.90;;;11.90;99.90;;;;;;5053245;28;20033;-77
2023/10/07 02:11:11;;;;;;;1999.90;999.90;;;11.90;99.90;;;;;;5052898;28;20028;-77
2023/10/07 02:13:37;;;;;;;1999.90;999.90;;;11.90;99.90;;;;;;5053284;28;20021;-77
2023/10/07 02:16:06;;;;;;;1999.90;999.90;;;11.90;99.90;;;;;;5052833;28;20025;-71
2023/10/07 02:18:35;;;;;;;1999.90;999.90;;;11.90;99.90;;;;;;5053023;28;20079;-72
2023/10/07 02:21:07;;;;;;;1999.90;999.90;;;11.90;99.90;;;;;;5052579;28;20373;-71
2023/10/07 02:23:45;;;;;;;1999.90;999.90;;;11.90;99.90;;;;;;5052999;28;20078;-77
2023/10/07 02:26:21;;;;;;;1999.90;999.90;;;11.80;99.90;;;;;;5039559;28;20056;-77
2023/10/07 02:28:52;;;;;;;1999.90;999.90;;;11.60;99.90;;;;;;5033704;28;20060;-77
2023/10/07 02:31:19;;;;;;;1999.90;999.90;;;11.60;99.90;;;;;;5041833;28;20373;-71
2023/10/07 02:33:52;;;;;;;1999.90;999.90;;;11.50;99.90;;;;;;5052817;28;20052;-72
2023/10/07 02:39:24;;;;;;;1999.90;999.90;;;11.40;99.90;;;;;;5052565;28;20431;-72
2023/10/07 02:41:50;;;;;;;1999.90;999.90;;;11.30;99.90;;;;;;5052432;28;20028;-71
2023/10/07 02:44:27;;;;;;;1999.90;999.90;;;11.30;99.90;;;;;;5052927;28;20025;-71
2023/10/07 02:46:53;;;;;;;1999.90;999.90;;;11.30;99.90;;;;;;5052774;28;20017;-77
2023/10/07 02:49:21;;;;;;;1999.90;999.90;;;11.30;99.90;;;;;;5052052;28;20522;-77
2023/10/07 02:51:49;;;;;;;1999.90;999.90;;;11.20;99.90;;;;;;5052634;28;20014;-77
2023/10/07 02:54:19;;;;;;;1999.90;999.90;;;11.10;99.90;;;;;;5052591;28;20017;-71
2023/10/07 02:57:07;;;;;;;1999.90;999.90;;;11.10;99.90;;;;;;5052598;28;20017;-71
2023/10/07 02:59:50;;;;;;;1999.90;999.90;;;11.10;99.90;;;;;;5052061;28;20059;-72
2023/10/07 03:04:44;;;;;;;1999.90;999.90;;;11.10;99.90;;;;;;5052363;28;20037;-72
2023/10/07 03:07:14;;;;;;;1999.90;999.90;;;11.20;99.90;;;;;;5032264;28;20109;-77
2023/10/07 03:12:28;;;;;;;1999.90;999.90;;;11.20;99.90;;;;;;5047732;28;20027;-77
2023/10/07 03:15:00;;;;;;;1999.90;999.90;;;11.20;99.90;;;;;;5052325;28;20033;-77
2023/10/07 03:17:34;;;;;;;1999.90;999.90;;;11.20;99.90;;;;;;5052324;28;20100;-77
2023/10/07 03:20:23;;;;;;;;;;;11.20;99.90;;;;;;5051995;28;20021;-77
2023/10/07 03:23:11;;;;;;;1999.90;999.90;;;11.10;99.90;;;;;;5052091;28;19931;-72
2023/10/07 03:25:55;;;;;;;1999.90;999.90;;;11.20;99.90;;;;;;5045641;28;20072;-77
2023/10/07 03:28:23;;;;;;;1999.90;999.90;;;11.10;99.90;;;;;;5032084;28;20483;-77
2023/10/07 03:30:52;;;;;;;1999.90;999.90;;;11.10;99.90;;;;;;5044576;28;20033;-77
2023/10/07 03:33:42;;;;;;;1999.90;999.90;;;11.00;99.90;;;;;;5032116;28;20026;-71
2023/10/07 03:36:09;;;;;;;1999.90;999.90;;;10.90;99.90;;;;;;5032497;28;20032;-71
2023/10/07 03:38:35;;;;;;;1999.90;999.90;;;10.90;99.90;;;;;;5032710;28;20032;-77
2023/10/07 03:41:06;;;;;;;1999.90;999.90;;;10.90;99.90;;;;;;5036082;28;20026;-77
2023/10/07 03:43:34;;;;;;;1999.90;999.90;;;10.90;99.90;;;;;;5036177;28;20091;-77
2023/10/07 03:46:00;;;;;;;1999.90;999.90;;;10.80;99.90;;;;;;5035806;28;20029;-72
2023/10/07 03:48:31;;;;;;;1999.90;999.90;;;10.90;99.90;;;;;;5035647;28;20112;-71
2023/10/07 03:51:12;;;;;;;1999.90;999.90;;;10.90;99.90;;;;;;5035451;28;20025;-71
2023/10/07 03:53:44;;;;;;;1999.90;999.90;;;11.00;99.90;;;;;;5035149;28;20018;-77
2023/10/07 03:56:16;;;;;;;1999.90;999.90;;;11.00;99.90;;;;;;5035992;28;20436;-77
2023/10/07 03:58:43;;;;;;;1999.90;999.90;;;11.00;99.90;;;;;;5035615;28;20566;-71
2023/10/07 04:01:16;;;;;;;1999.90;999.90;;;11.00;99.90;;;;;;5049420;28;20021;-72
2023/10/07 04:03:46;;;;;;;1999.90;999.90;;;11.00;99.90;;;;;;5055342;28;20511;-77
2023/10/07 04:06:13;;;;;;;1999.90;999.90;;;11.00;99.90;;;;;;5047729;28;20048;-77
2023/10/07 04:08:40;;;;;;;1999.90;999.90;;;11.00;99.90;;;;;;5038792;28;20540;-77
2023/10/07 04:11:13;;;;;;;1999.90;999.90;;;11.00;99.90;;;;;;5039030;28;20480;-77
2023/10/07 04:13:39;;;;;;;1999.90;999.90;;;10.90;99.90;;;;;;5055342;28;20055;-72
2023/10/07 04:16:14;;;;;;;1999.90;999.90;;;10.90;99.90;;;;;;5055048;28;20526;-72
2023/10/07 04:18:40;;;;;;;1999.90;999.90;;;10.90;99.90;;;;;;5054950;28;20021;-77
2023/10/07 04:21:06;;;;;;;1999.90;999.90;;;10.90;99.90;;;;;;5054962;28;20476;-77
2023/10/07 04:23:32;;;;;;;1999.90;999.90;;;10.80;99.90;;;;;;5055221;28;20496;-77
2023/10/07 04:26:10;;;;;;;1999.90;999.90;;;10.80;99.90;;;;;;5044892;28;20049;-71
2023/10/07 04:28:39;;;;;;;1999.90;999.90;;;10.80;99.90;;;;;;5036238;28;20025;-71
2023/10/07 04:31:10;;;;;;;1999.90;999.90;;;10.90;99.90;;;;;;5042739;28;20033;-77
2023/10/07 04:33:41;;;;;;;1999.90;999.90;;;10.90;99.90;;;;;;5054869;28;20028;-71
2023/10/07 04:36:11;;;;;;;1999.90;999.90;;;10.90;99.90;;;;;;5055085;28;20106;-77
2023/10/07 04:38:52;;;;;;;1999.90;999.90;;;10.90;99.90;;;;;;5054784;28;20021;-71
2023/10/07 04:41:30;;;;;;;1999.90;999.90;;;10.90;99.90;;;;;;5054853;28;20099;-71
2023/10/07 04:46:43;;;;;;;1999.90;999.90;;;10.90;99.90;;;;;;5054747;28;20040;-77
2023/10/07 04:49:15;;;;;;;1999.90;999.90;;;10.80;99.90;;;;;;5053143;28;20525;-77
2023/10/07 04:54:06;;;;;;;1999.90;999.90;;;10.80;99.90;;;;;;5054648;28;20025;-72
2023/10/07 04:56:32;;;;;;;1999.90;999.90;;;10.80;99.90;;;;;;5054487;28;20036;-77
2023/10/07 04:59:10;;;;;;;1999.90;999.90;;;10.70;99.90;;;;;;5054427;28;20492;-77
2023/10/07 05:01:41;;;;;;;1999.90;999.90;;;10.70;99.90;;;;;;5054334;28;20017;-77
2023/10/07 05:04:13;;;;;;;1999.90;999.90;;;10.60;99.90;;;;;;5054107;28;20017;-71
2023/10/07 05:06:42;;;;;;;1999.90;999.90;;;10.50;99.90;;;;;;5054084;28;20485;-71
2023/10/07 05:09:09;;;;;;;1999.90;999.90;;;10.50;99.90;;;;;;5053945;28;20021;-77
2023/10/07 05:11:40;;;;;;;1999.90;999.90;;;10.50;99.90;;;;;;5054362;28;20023;-77
2023/10/07 05:14:17;;;;;;;1999.90;999.90;;;10.40;99.90;;;;;;5053967;28;20503;-77
2023/10/07 05:16:46;;;;;;;1999.90;999.90;;;10.40;99.90;;;;;;5046097;28;20424;-72
2023/10/07 05:19:22;;;;;;;1999.90;999.90;;;10.40;99.90;;;;;;5036913;28;20391;-77
2023/10/07 05:24:38;;;;;;;1999.90;999.90;;;10.40;99.90;;;;;;5054183;28;20071;-77
2023/10/07 05:27:05;;;;;;;1999.90;999.90;;;10.40;99.90;;;;;;5034671;28;20072;-77
2023/10/07 05:29:31;;;;;;;1999.90;999.90;;;10.40;99.90;;;;;;5037439;28;20116;-77
2023/10/07 05:31:57;;;;;;;1999.90;999.90;;;10.40;99.90;;;;;;5042530;28;20066;-72
2023/10/07 05:34:28;;;;;;;1999.90;999.90;;;10.40;99.90;;;;;;5033713;28;20057;-71
2023/10/07 05:36:57;;;;;;;1999.90;999.90;;;10.40;99.90;;;;;;5034237;28;20034;-77
2023/10/07 05:39:23;;;;;;;1999.90;999.90;;;10.40;99.90;;;;;;5033829;28;20514;-77
2023/10/07 05:41:49;;;;;;;1999.90;999.90;;;10.40;99.90;;;;;;5033677;28;20029;-77
2023/10/07 05:44:15;;;;;;;1999.90;999.90;;;10.40;99.90;;;;;;5033643;28;20538;-77
2023/10/07 05:46:42;;;;;;;1999.90;999.90;;;10.50;99.90;;;;;;5033855;28;20033;-71
2023/10/07 05:49:10;;;;;;;1999.90;999.90;;;10.60;99.90;;;;;;5033372;28;20029;-78
2023/10/07 05:51:36;;;;;;;1999.90;999.90;;;10.70;99.90;;;;;;5033665;28;20112;-77
2023/10/07 05:54:03;;;;;;;1999.90;999.90;;;10.70;99.90;;;;;;5033303;28;20025;-77
2023/10/07 05:56:30;;;;;;;1999.90;999.90;;;10.80;99.90;;;;;;5037211;28;20036;-71
2023/10/07 05:58:57;;;;;;;1999.90;999.90;;;10.80;99.90;;;;;;5041991;28;20017;-77
2023/10/07 06:01:24;;;;;;;1999.90;999.90;;;10.90;99.90;;;;;;5049157;28;20021;-77
2023/10/07 06:03:51;;;;;;;1999.90;999.90;;;10.90;99.90;;;;;;5053227;28;20511;-71
2023/10/07 06:06:18;;;;;;;1999.90;999.90;;;11.00;99.90;;;;;;5053073;28;20108;-77
2023/10/07 06:08:44;;;;;;;1999.90;999.90;;;11.00;99.90;;;;;;5053150;28;20021;-76
2023/10/07 06:11:12;;;;;;;1999.90;999.90;;;11.00;99.90;;;;;;5052939;28;20029;-71
2023/10/07 06:13:40;;;;;;;1999.90;999.90;;;10.90;99.90;;;;;;5052959;28;20559;-77
2023/10/07 06:16:07;;;;;;;1999.90;999.90;;;10.90;99.90;;;;;;5053120;28;20021;-72
2023/10/07 06:18:33;;;;;;;1999.90;999.90;;;10.80;99.90;;;;;;5052811;28;20496;-77
2023/10/07 06:23:44;;;;;;;1999.90;999.90;;;10.80;99.90;;;;;;5052927;28;20087;-71
2023/10/07 06:26:11;;;;;;;1999.90;999.90;;;10.80;99.90;;;;;;5040778;28;20132;-71
2023/10/07 06:28:43;;;;;;;1999.90;999.90;;;10.80;99.90;;;;;;5033642;28;20033;-77
2023/10/07 06:31:13;;;;;;;1999.90;999.90;;;10.90;99.90;;;;;;5040984;28;20047;-77
2023/10/07 06:33:59;;;;;;;1999.90;999.90;;;11.00;99.90;;;;;;5052963;28;20053;-72
2023/10/07 06:36:26;;;;;;;1999.90;999.90;;;11.00;99.90;;;;;;5052940;28;20162;-71
2023/10/07 06:38:53;;;;;;;1999.90;999.90;;;11.10;99.90;;;;;;5052681;28;20025;-77
2023/10/07 06:41:19;;;;;;;1999.90;999.90;;;11.10;99.90;;;;;;5052472;28;20032;-71
2023/10/07 06:43:49;;;;;;;1999.90;999.90;;;11.10;99.90;;;;;;5052672;28;20475;-77
2023/10/07 06:46:21;;;;;;;1999.90;999.90;;;11.20;99.90;;;;;;5052658;28;20519;-77
2023/10/07 06:48:51;;;;;;;1999.90;999.90;;;11.30;99.90;;;;;;5052184;28;20110;-71
2023/10/07 06:51:16;;;;;;;1999.90;999.90;;;11.40;99.90;;;;;;5052308;28;20032;-72
2023/10/07 06:53:43;;;;;;;1999.90;999.90;;;11.40;99.90;;;;;;5052771;28;20029;-77
2023/10/07 06:56:20;;;;;;;1999.90;999.90;;;11.50;99.90;;;;;;5052430;28;20021;-72
2023/10/07 06:58:59;;;;;;;1999.90;999.90;;;11.50;99.90;;;;;;5052436;28;20025;-77
2023/10/07 07:01:35;;;;;;;1999.90;999.90;;;11.50;99.90;;;;;;5044031;28;20017;-71
2023/10/07 07:04:09;;;;;;;1999.90;999.90;;;11.60;99.90;;;;;;5037619;28;20041;-71
2023/10/07 07:06:45;;;;;;;1999.90;999.90;;;11.70;99.90;;;;;;5047442;28;20013;-77
2023/10/07 07:12:03;;;;;;;1999.90;999.90;;;12.00;99.90;;;;;;5052381;28;20032;-77
2023/10/07 07:14:29;;;;;;;1999.90;999.90;;;12.10;99.90;;;;;;5054614;28;20490;-77
2023/10/07 07:16:56;;;;;;;1999.90;999.90;;;12.20;99.90;;;;;;5056318;28;20032;-72
2023/10/07 07:19:23;;;;;;;1999.90;999.90;;;12.30;99.90;;;;;;5056223;28;20025;-77
2023/10/07 07:21:49;;;;;;;1999.90;999.90;;;12.40;99.90;;;;;;5055888;28;20044;-77
2023/10/07 07:24:20;;;;;;;1999.90;999.90;;;12.70;99.90;;;;;;5054988;28;20381;-77
2023/10/07 07:26:51;;;;;;;1999.90;999.90;;;12.90;99.90;;;;;;5039290;28;20049;-71
2023/10/07 07:29:18;;;;;;;1999.90;999.90;;;13.10;99.90;;;;;;5039590;28;20147;-72
2023/10/07 07:31:46;;;;;;;1999.90;999.90;;;13.30;99.90;;;;;;5045082;28;20021;-77
2023/10/07 07:37:10;;;;;;;1999.90;999.90;;;13.50;99.90;;;;;;5022670;28;20037;-77
2023/10/07 07:39:36;;;;;;;1999.90;999.90;;;13.60;99.90;;;;;;5036185;28;20029;-72
2023/10/07 07:42:15;;;;;;;1999.90;999.90;;;13.80;99.90;;;;;;5036104;28;20080;-72
2023/10/07 07:44:57;;;;;;;1999.90;999.90;;;14.00;99.90;;;;;;5035759;28;20025;-78
2023/10/07 07:47:30;;;;;;;1999.90;999.90;;;14.10;99.90;;;;;;5047124;28;20427;-77
2023/10/07 07:50:02;;;;;;;1999.90;999.90;;;14.10;99.90;;;;;;5035511;28;20037;-72
2023/10/07 07:52:27;;;;;;;1999.90;999.90;;;14.00;99.90;;;;;;5035767;28;20495;-72
2023/10/07 07:54:54;;;;;;;1999.90;999.90;;;14.00;99.90;;;;;;5034447;28;20025;-72
2023/10/07 07:57:22;;;;;;;1999.90;999.90;;;14.00;99.90;;;;;;5035528;28;20443;-77
2023/10/07 07:59:48;;;;;;;1999.90;999.90;;;14.00;99.90;;;;;;5038769;28;20373;-77
2023/10/07 08:02:16;;;;;;;1999.90;999.90;;;14.20;99.90;;;;;;5055553;28;20572;-78
2023/10/07 08:04:47;;;;;;;1999.90;999.90;;;14.40;99.90;;;;;;5055512;28;20021;-77
2023/10/07 08:09:51;;;;;;;1999.90;999.90;;;16.00;99.90;;;;;;5035158;28;20053;-72
2023/10/07 08:12:28;;;;;;;1999.90;999.90;;;16.60;99.90;;;;;;5048668;28;20117;-78
2023/10/07 08:14:58;;;;;;;1999.90;999.90;;;17.00;99.90;;;;;;5055197;28;20024;-78
2023/10/07 08:17:27;;;;;;;1999.90;999.90;;;17.30;99.90;;;;;;5055323;28;20395;-78
2023/10/07 08:19:57;;;;;;;1999.90;999.90;;;17.40;99.90;;;;;;5054957;28;20032;-73
2023/10/07 08:22:27;;;;;;;1999.90;999.90;;;18.30;99.90;;;;;;5053838;28;20408;-73
2023/10/07 08:24:53;;;;;;;1999.90;999.90;;;19.50;99.90;;;;;;5053742;28;20033;-78
2023/10/07 08:30:07;;;;;;;1999.90;999.90;;;20.10;99.90;;;;;;5041104;28;20071;-78
2023/10/07 08:32:42;;;;;;;1999.90;999.90;;;20.00;99.90;;;;;;5040890;28;20439;-73
2023/10/07 08:35:16;;;;;;;1999.90;999.90;;;21.20;99.90;;;;;;5034770;28;20033;-78
2023/10/07 08:37:45;;;;;;;1999.90;999.90;;;22.70;99.90;;;;;;5047591;28;20028;-79
2023/10/07 08:40:26;;;;;;;1999.90;999.90;;;24.00;99.90;;;;;;5054789;28;20033;-79
2023/10/07 08:42:56;;;;;;;1999.90;999.90;;;24.70;99.90;;;;;;5054687;28;20017;-73
2023/10/07 08:45:23;;;;;;;1999.90;999.90;;;25.30;98.80;;;;;;5054795;28;20566;-73
2023/10/07 08:47:53;;;;;;;1999.90;999.90;;;24.80;98.10;;;;;;5054676;28;20020;-73
2023/10/07 08:50:23;;;;;;;1999.90;999.90;;;25.30;98.10;;;;;;5054476;28;20078;-79
2023/10/07 08:53:03;;;;;;;1999.90;999.90;;;25.80;97.00;;;;;;5054319;28;20025;-79
2023/10/07 08:55:30;;;;;;;1999.90;999.90;;;26.10;96.90;;;;;;5054248;28;20029;-79
2023/10/07 08:57:57;;;;;;;1999.90;999.90;;;26.20;96.30;;;;;;5050495;28;20052;-73
2023/10/07 09:00:29;;;;;;;1999.90;999.90;;;26.40;96.10;;;;;;5050518;28;20032;-73
2023/10/07 09:02:55;;;;;;;1999.90;999.90;;;27.10;95.50;;;;;;5054305;28;20036;-73
2023/10/07 09:05:21;;;;;;;1999.90;999.90;;;27.20;95.30;;;;;;5054105;28;20021;-79
2023/10/07 09:07:50;;;;;;;1999.90;999.90;;;27.40;94.90;;;;;;5054441;28;20554;-79
2023/10/07 09:10:17;;;;;;;1999.90;999.90;;;28.00;94.50;;;;;;5052814;28;20498;-71
2023/10/07 09:12:49;;;;;;;1999.90;999.90;;;28.40;94.30;;;;;;5054092;28;20017;-72
2023/10/07 09:15:29;;;;;;;1999.90;999.90;;;28.40;93.80;;;;;;5054145;28;20392;-77
2023/10/07 09:18:05;;;;;;;1999.90;999.90;;;28.40;93.40;;;;;;5054216;28;20102;-73
2023/10/07 09:20:32;;;;;;;1999.90;999.90;;;27.80;93.40;;;;;;5053844;28;20033;-79
2023/10/07 09:23:01;;;;;;;1999.90;999.90;;;26.20;94.50;;;;;;5053845;28;20124;-79
2023/10/07 09:25:34;;;;;;;1999.90;999.90;;;24.70;96.10;;;;;;5047905;28;20052;-73
2023/10/07 09:28:03;;;;;;;1999.90;999.90;;;23.50;98.40;;;;;;5034072;28;20500;-73
2023/10/07 09:30:37;;;;;;;1999.90;999.90;;;22.90;99.90;;;;;;5043283;28;20029;-79
2023/10/07 09:33:06;;;;;;;1999.90;999.90;;;22.30;99.90;;;;;;5035455;28;20024;-79
2023/10/07 09:35:33;;;;;;;1999.90;999.90;;;22.10;99.90;;;;;;5034100;28;20060;-79
2023/10/07 09:38:00;;;;;;;1999.90;999.90;;;21.90;99.90;;;;;;5033142;28;20477;-79
2023/10/07 09:43:33;;;;;;;1999.90;999.90;;;21.80;99.90;;;;;;5033557;28;20474;-79
2023/10/07 09:45:58;;;;;;;1999.90;999.90;;;21.50;99.90;;;;;;5033783;28;20025;-79
2023/10/07 09:48:31;;;;;;;1999.90;999.90;;;21.60;99.90;;;;;;5032228;28;20079;-73
2023/10/07 09:51:14;;;;;;;1999.90;999.90;;;21.60;99.90;;;;;;5033033;28;20440;-73
2023/10/07 09:53:46;;;;;;;1999.90;999.90;;;21.70;99.90;;;;;;5033730;28;20034;-73
2023/10/07 09:56:22;;;;;;;1999.90;999.90;;;21.80;99.90;;;;;;5033518;28;20032;-78
2023/10/07 09:59:13;;;;;;;1999.90;999.90;;;21.90;99.90;;;;;;5033371;28;20021;-78
2023/10/07 10:01:53;;;;;;;1999.90;999.90;;;22.00;99.90;;;;;;5051602;28;20496;-79
2023/10/07 10:04:28;;;;;;;1999.90;999.90;;;22.30;99.90;;;;;;5053269;28;20051;-73
2023/10/07 10:07:06;;;;;;;1999.90;999.90;;;22.30;99.90;;;;;;5052306;28;20025;-78
2023/10/07 10:09:45;;;;;;;1999.90;999.90;;;22.20;99.90;;;;;;5053001;28;20071;-78
2023/10/07 10:12:27;;;;;;;1999.90;999.90;;;22.50;99.90;;;;;;5053325;28;20029;-78
2023/10/07 10:14:56;;;;;;;1999.90;999.90;;;22.60;99.90;;;;;;5052931;28;20017;-78
2023/10/07 10:17:48;;;;;;;1999.90;999.90;;;22.70;99.90;;;;;;5053089;28;20034;-72
2023/10/07 10:20:18;;;;;;;1999.90;999.90;;;22.70;99.90;;;;;;5051575;28;20420;-78
2023/10/07 10:22:51;;;;;;;1999.90;999.90;;;22.70;99.90;;;;;;5052687;28;20064;-78
2023/10/07 10:25:33;;;;;;;1999.90;999.90;;;22.80;99.90;;;;;;5048370;28;20052;-78
2023/10/07 10:28:02;;;;;;;1999.90;999.90;;;22.80;99.90;;;;;;5033017;28;20025;-78
2023/10/07 10:30:29;;;;;;;1999.90;999.90;;;22.80;99.90;;;;;;5041872;28;20036;-78
2023/10/07 10:33:00;;;;;;;1999.90;999.90;;;22.90;99.90;;;;;;5035795;28;20507;-78
2023/10/07 10:35:26;;;;;;;1999.90;999.90;;;23.00;99.90;;;;;;5032908;28;20030;-78
2023/10/07 10:37:59;;;;;;;1999.90;999.90;;;23.20;99.90;;;;;;5032657;28;20064;-78
2023/10/07 10:40:31;;;;;;;1999.90;999.90;;;23.00;99.90;;;;;;5032998;28;20029;-78
2023/10/07 10:42:57;;;;;;;1999.90;999.90;;;23.20;99.90;;;;;;5032702;28;20515;-73
2023/10/07 10:45:25;;;;;;;1999.90;999.90;;;23.20;99.90;;;;;;5032791;28;20025;-78
2023/10/07 10:47:54;;;;;;;1999.90;999.90;;;23.20;99.90;;;;;;5032572;28;20364;-78
2023/10/07 10:50:28;;;;;;;1999.90;999.90;;;23.30;99.90;;;;;;5032034;28;20495;-78
2023/10/07 10:52:55;;;;;;;1999.90;999.90;;;23.30;99.90;;;;;;5032696;28;20026;-78
2023/10/07 10:55:24;;;;;;;1999.90;999.90;;;23.40;99.90;;;;;;5032919;28;20091;-78
2023/10/07 10:57:53;;;;;;;1999.90;999.90;;;23.50;99.90;;;;;;5032690;28;20044;-73
2023/10/07 11:00:19;;;;;;;1999.90;999.90;;;23.50;99.90;;;;;;5039784;28;20533;-78
2023/10/07 11:02:46;;;;;;;1999.90;999.90;;;23.50;99.90;;;;;;5052431;28;20045;-78
2023/10/07 11:05:15;;;;;;;1999.90;999.90;;;23.60;99.90;;;;;;5052048;28;20028;-73
2023/10/07 11:07:42;;;;;;;1999.90;999.90;;;23.60;99.80;;;;;;5052597;28;20035;-78
2023/10/07 11:10:10;;;;;;;1999.90;999.90;;;23.80;99.20;;;;;;5052149;28;20025;-78
2023/10/07 11:12:36;;;;;;;1999.90;999.90;;;24.00;99.00;;;;;;5052379;28;20021;-78
2023/10/07 11:15:13;;;;;;;1999.90;999.90;;;24.00;99.30;;;;;;5052076;28;20100;-78
2023/10/07 11:17:53;;;;;;;1999.90;999.90;;;24.10;99.50;;;;;;5052481;28;20021;-78
2023/10/07 11:20:19;;;;;;;1999.90;999.90;;;24.10;99.30;;;;;;5052211;28;20495;-73
2023/10/07 11:22:45;;;;;;;1999.90;999.90;;;24.20;98.50;;;;;;5052182;28;20067;-73
2023/10/07 11:25:22;;;;;;;1999.90;999.90;;;24.30;99.10;;;;;;5048440;28;20128;-79
2023/10/07 11:27:49;;;;;;;1999.90;999.90;;;24.30;98.70;;;;;;5032133;28;20477;-78
2023/10/07 11:30:15;;;;;;;1999.90;999.90;;;24.40;97.70;;;;;;5039426;28;20530;-78
2023/10/07 11:32:43;;;;;;;1999.90;999.90;;;24.40;97.20;;;;;;5036205;28;20026;-79
2023/10/07 11:35:19;;;;;;;1999.90;999.90;;;24.60;98.00;;;;;;5032524;28;20033;-73
2023/10/07 11:37:58;;;;;;;1999.90;999.90;;;24.80;97.80;;;;;;5032354;28;20079;-73
2023/10/07 11:40:27;;;;;;;1999.90;999.90;;;24.80;97.10;;;;;;5032239;28;20037;-79
2023/10/07 11:42:53;;;;;;;1999.90;999.90;;;24.80;96.50;;;;;;5032052;28;20056;-73
2023/10/07 11:45:22;;;;;;;1999.90;999.90;;;24.90;96.50;;;;;;5032605;28;20456;-78
2023/10/07 11:47:48;;;;;;;1999.90;999.90;;;25.10;96.50;;;;;;5032440;28;20025;-73
2023/10/07 11:50:16;;;;;;;1999.90;999.90;;;25.10;95.40;;;;;;5030688;28;20048;-72
2023/10/07 11:52:42;;;;;;;1999.90;999.90;;;25.30;96.00;;;;;;5031985;28;20021;-78
2023/10/07 11:55:09;;;;;;;1999.90;999.90;;;25.40;95.70;;;;;;5032322;28;20028;-78
2023/10/07 11:57:37;;;;;;;1999.90;999.90;;;25.50;95.80;;;;;;5032086;28;20496;-79
2023/10/07 12:00:09;;;;;;;1999.90;999.90;;;25.70;96.10;;;;;;5038504;28;20025;-73
2023/10/07 12:02:35;;;;;;;1999.90;999.90;;;25.80;95.70;;;;;;5055569;28;20025;-73
2023/10/07 12:05:01;;;;;;;1999.90;999.90;;;25.90;94.40;;;;;;5055056;28;20393;-78
2023/10/07 12:07:30;;;;;;;1999.90;999.90;;;25.70;93.20;;;;;;5055532;28;20510;-78
2023/10/07 12:09:55;;;;;;;1999.90;999.90;;;25.70;93.50;;;;;;5055142;28;20411;-73
2023/10/07 12:12:22;;;;;;;1999.90;999.90;;;25.90;94.10;;;;;;5055381;28;20017;-73
2023/10/07 12:14:48;;;;;;;1999.90;999.90;;;26.10;93.40;;;;;;5054713;28;20021;-72
2023/10/07 12:17:16;;;;;;;1999.90;999.90;;;26.10;93.60;;;;;;5055009;28;20619;-79
2023/10/07 12:19:42;;;;;;;1999.90;999.90;;;26.30;93.80;;;;;;5055361;28;20029;-79
2023/10/07 12:22:07;;;;;;;1999.90;999.90;;;26.40;92.60;;;;;;5054772;28;20104;-79
2023/10/07 12:24:34;;;;;;;1999.90;999.90;;;26.50;92.10;;;;;;5055321;28;20033;-79
2023/10/07 12:27:00;;;;;;;1999.90;999.90;;;26.50;91.60;;;;;;5034829;28;20049;-73
2023/10/07 12:29:27;;;;;;;1999.90;999.90;;;26.60;91.60;;;;;;5038346;28;20037;-79
2023/10/07 12:31:53;;;;;;;1999.90;999.90;;;26.60;91.20;;;;;;5044059;28;20014;-79
2023/10/07 12:34:20;;;;;;;1999.90;999.90;;;26.70;91.60;;;;;;5033763;28;20032;-79
2023/10/07 12:36:52;;;;;;;1999.90;999.90;;;26.60;91.50;;;;;;5033692;28;20033;-78
2023/10/07 12:39:21;;;;;;;;;;;26.70;91.40;;;;;;5035397;28;20057;-73
2023/10/07 12:41:47;;;;;;;1999.90;999.90;;;26.90;86.20;;;;;;5034735;28;19905;-73
2023/10/07 12:44:13;;;;;;;1999.90;999.90;;;26.90;87.90;;;;;;5034937;28;20033;-73
2023/10/07 12:46:40;;;;;;;1999.90;999.90;;;26.70;86.60;;;;;;5034886;28;20026;-79
2023/10/07 12:49:09;;;;;;;1999.90;999.90;;;26.90;87.50;;;;;;5034781;28;20033;-79
2023/10/07 12:51:45;;;;;;;1999.90;999.90;;;27.00;87.50;;;;;;5034622;28;20022;-73
2023/10/07 12:54:11;;;;;;;1999.90;999.90;;;26.90;87.60;;;;;;5034690;28;20091;-73
2023/10/07 12:56:38;;;;;;;1999.90;999.90;;;27.10;88.80;;;;;;5034745;28;20025;-79
2023/10/07 12:59:18;;;;;;;1999.90;999.90;;;27.30;87.00;;;;;;5033809;28;20531;-78